sensor_id;sensor_type;location;lat;lon;timestamp;P1;durP1;ratioP1;P2;durP2;ratioP2
70829;SDS011;58451;51.550;7.208;2022-07-30T00:00:48;9.50;;;4.40;;
70829;SDS011;58451;51.550;7.208;2022-07-30T00:03:16;10.50;;;4.50;;
70829;SDS011;58451;51.550;7.208;2022-07-30T00:05:43;8.60;;;4.40;;
70829;SDS011;58451;51.550;7.208;2022-07-30T00:08:10;9.70;;;4.40;;
70829;SDS011;58451;51.550;7.208;2022-07-30T00:10:37;8.50;;;4.50;;
70829;SDS011;58451;51.550;7.208;2022-07-30T00:13:05;12.50;;;4.30;;
70829;SDS011;58451;51.550;7.208;2022-07-30T00:15:33;11.30;;;4.40;;
70829;SDS011;58451;51.550;7.208;2022-07-30T00:18:00;9.60;;;4.40;;
70829;SDS011;58451;51.550;7.208;2022-07-30T00:20:28;9.30;;;4.30;;
70829;SDS011;58451;51.550;7.208;2022-07-30T00:22:57;8.30;;;4.40;;
70829;SDS011;58451;51.550;7.208;2022-07-30T00:25:30;11.90;;;4.80;;
70829;SDS011;58451;51.550;7.208;2022-07-30T00:27:57;10.30;;;5.40;;
70829;SDS011;58451;51.550;7.208;2022-07-30T00:30:24;9.70;;;5.10;;
70829;SDS011;58451;51.550;7.208;2022-07-30T00:32:51;10.50;;;5.00;;
70829;SDS011;58451;51.550;7.208;2022-07-30T00:35:18;11.50;;;4.80;;
70829;SDS011;58451;51.550;7.208;2022-07-30T00:37:45;11.60;;;5.40;;
70829;SDS011;58451;51.550;7.208;2022-07-30T00:40:12;9.70;;;4.60;;
70829;SDS011;58451;51.550;7.208;2022-07-30T00:42:44;9.70;;;4.70;;
70829;SDS011;58451;51.550;7.208;2022-07-30T00:45:14;9.30;;;4.70;;
70829;SDS011;58451;51.550;7.208;2022-07-30T00:47:43;9.10;;;4.60;;
70829;SDS011;58451;51.550;7.208;2022-07-30T00:50:12;10.70;;;4.80;;
70829;SDS011;58451;51.550;7.208;2022-07-30T00:52:40;11.60;;;5.00;;
70829;SDS011;58451;51.550;7.208;2022-07-30T00:55:10;9.40;;;4.50;;
70829;SDS011;58451;51.550;7.208;2022-07-30T00:57:39;10.30;;;4.70;;
70829;SDS011;58451;51.550;7.208;2022-07-30T01:00:10;10.20;;;4.60;;
70829;SDS011;58451;51.550;7.208;2022-07-30T01:02:39;8.80;;;4.40;;
70829;SDS011;58451;51.550;7.208;2022-07-30T01:05:07;10.30;;;4.90;;
70829;SDS011;58451;51.550;7.208;2022-07-30T01:07:35;10.60;;;4.60;;
70829;SDS011;58451;51.550;7.208;2022-07-30T01:10:04;11.50;;;4.90;;
70829;SDS011;58451;51.550;7.208;2022-07-30T01:12:32;9.90;;;5.10;;
70829;SDS011;58451;51.550;7.208;2022-07-30T01:15:02;9.10;;;4.70;;
70829;SDS011;58451;51.550;7.208;2022-07-30T01:17:31;11.50;;;5.30;;
70829;SDS011;58451;51.550;7.208;2022-07-30T01:20:03;12.70;;;5.60;;
70829;SDS011;58451;51.550;7.208;2022-07-30T01:22:49;9.80;;;5.00;;
70829;SDS011;58451;51.550;7.208;2022-07-30T01:28:09;13.50;;;5.50;;
70829;SDS011;58451;51.550;7.208;2022-07-30T01:30:44;9.60;;;5.00;;
70829;SDS011;58451;51.550;7.208;2022-07-30T01:33:16;11.10;;;5.50;;
70829;SDS011;58451;51.550;7.208;2022-07-30T01:35:47;11.90;;;5.80;;
70829;SDS011;58451;51.550;7.208;2022-07-30T01:38:19;12.90;;;5.50;;
70829;SDS011;58451;51.550;7.208;2022-07-30T01:40:50;9.90;;;5.40;;
70829;SDS011;58451;51.550;7.208;2022-07-30T01:43:20;11.70;;;4.70;;
70829;SDS011;58451;51.550;7.208;2022-07-30T01:45:50;10.00;;;5.40;;
70829;SDS011;58451;51.550;7.208;2022-07-30T01:48:22;13.30;;;5.40;;
70829;SDS011;58451;51.550;7.208;2022-07-30T01:50:54;11.40;;;5.00;;
70829;SDS011;58451;51.550;7.208;2022-07-30T01:53:25;9.60;;;4.90;;
70829;SDS011;58451;51.550;7.208;2022-07-30T01:55:59;9.80;;;5.30;;
70829;SDS011;58451;51.550;7.208;2022-07-30T01:58:30;13.00;;;5.40;;
70829;SDS011;58451;51.550;7.208;2022-07-30T02:01:12;11.30;;;5.30;;
70829;SDS011;58451;51.550;7.208;2022-07-30T02:03:39;10.30;;;5.20;;
70829;SDS011;58451;51.550;7.208;2022-07-30T02:06:10;11.00;;;4.60;;
70829;SDS011;58451;51.550;7.208;2022-07-30T02:08:50;11.40;;;5.30;;
70829;SDS011;58451;51.550;7.208;2022-07-30T02:11:20;12.80;;;5.50;;
70829;SDS011;58451;51.550;7.208;2022-07-30T02:14:23;12.70;;;6.00;;
70829;SDS011;58451;51.550;7.208;2022-07-30T02:16:55;10.80;;;5.10;;
70829;SDS011;58451;51.550;7.208;2022-07-30T02:19:33;12.30;;;5.90;;
70829;SDS011;58451;51.550;7.208;2022-07-30T02:22:11;9.80;;;5.60;;
70829;SDS011;58451;51.550;7.208;2022-07-30T02:24:41;12.00;;;5.20;;
70829;SDS011;58451;51.550;7.208;2022-07-30T02:27:16;12.90;;;6.10;;
70829;SDS011;58451;51.550;7.208;2022-07-30T02:29:48;10.60;;;5.00;;
70829;SDS011;58451;51.550;7.208;2022-07-30T02:32:19;11.10;;;6.20;;
70829;SDS011;58451;51.550;7.208;2022-07-30T02:34:57;14.40;;;5.80;;
70829;SDS011;58451;51.550;7.208;2022-07-30T02:37:31;11.80;;;5.40;;
70829;SDS011;58451;51.550;7.208;2022-07-30T02:40:12;11.90;;;5.20;;
70829;SDS011;58451;51.550;7.208;2022-07-30T02:42:45;11.90;;;5.80;;
70829;SDS011;58451;51.550;7.208;2022-07-30T02:45:18;10.60;;;5.20;;
70829;SDS011;58451;51.550;7.208;2022-07-30T02:47:58;11.50;;;5.40;;
70829;SDS011;58451;51.550;7.208;2022-07-30T02:50:28;12.90;;;6.30;;
70829;SDS011;58451;51.550;7.208;2022-07-30T02:52:57;15.80;;;6.40;;
70829;SDS011;58451;51.550;7.208;2022-07-30T02:55:27;12.00;;;6.80;;
70829;SDS011;58451;51.550;7.208;2022-07-30T02:57:57;12.70;;;6.00;;
70829;SDS011;58451;51.550;7.208;2022-07-30T03:00:27;15.30;;;6.90;;
70829;SDS011;58451;51.550;7.208;2022-07-30T03:02:57;12.90;;;6.40;;
70829;SDS011;58451;51.550;7.208;2022-07-30T03:05:27;12.60;;;6.30;;
70829;SDS011;58451;51.550;7.208;2022-07-30T03:07:57;10.80;;;6.10;;
70829;SDS011;58451;51.550;7.208;2022-07-30T03:10:26;11.80;;;6.10;;
70829;SDS011;58451;51.550;7.208;2022-07-30T03:12:55;14.00;;;6.80;;
70829;SDS011;58451;51.550;7.208;2022-07-30T03:15:24;14.30;;;5.90;;
70829;SDS011;58451;51.550;7.208;2022-07-30T03:17:55;13.30;;;6.20;;
70829;SDS011;58451;51.550;7.208;2022-07-30T03:20:28;10.40;;;6.10;;
70829;SDS011;58451;51.550;7.208;2022-07-30T03:22:58;12.50;;;6.20;;
70829;SDS011;58451;51.550;7.208;2022-07-30T03:25:29;11.20;;;6.20;;
70829;SDS011;58451;51.550;7.208;2022-07-30T03:28:00;11.90;;;6.00;;
70829;SDS011;58451;51.550;7.208;2022-07-30T03:30:29;11.90;;;6.20;;
70829;SDS011;58451;51.550;7.208;2022-07-30T03:32:59;10.90;;;5.00;;
70829;SDS011;58451;51.550;7.208;2022-07-30T03:35:27;14.10;;;6.80;;
70829;SDS011;58451;51.550;7.208;2022-07-30T03:37:57;11.30;;;5.90;;
70829;SDS011;58451;51.550;7.208;2022-07-30T03:40:26;11.70;;;5.80;;
70829;SDS011;58451;51.550;7.208;2022-07-30T03:42:54;12.80;;;6.20;;
70829;SDS011;58451;51.550;7.208;2022-07-30T03:45:23;14.70;;;7.60;;
70829;SDS011;58451;51.550;7.208;2022-07-30T03:47:54;15.10;;;7.60;;
70829;SDS011;58451;51.550;7.208;2022-07-30T03:50:23;15.00;;;7.40;;
70829;SDS011;58451;51.550;7.208;2022-07-30T03:52:51;13.70;;;7.60;;
70829;SDS011;58451;51.550;7.208;2022-07-30T03:55:18;12.20;;;6.70;;
70829;SDS011;58451;51.550;7.208;2022-07-30T03:57:47;15.60;;;7.60;;
70829;SDS011;58451;51.550;7.208;2022-07-30T04:00:15;14.20;;;7.00;;
70829;SDS011;58451;51.550;7.208;2022-07-30T04:02:46;15.50;;;7.50;;
70829;SDS011;58451;51.550;7.208;2022-07-30T04:05:33;17.00;;;7.30;;
70829;SDS011;58451;51.550;7.208;2022-07-30T04:08:09;14.50;;;7.10;;
70829;SDS011;58451;51.550;7.208;2022-07-30T04:10:36;13.00;;;8.00;;
70829;SDS011;58451;51.550;7.208;2022-07-30T04:13:20;16.00;;;6.90;;
70829;SDS011;58451;51.550;7.208;2022-07-30T04:18:57;13.70;;;7.00;;
70829;SDS011;58451;51.550;7.208;2022-07-30T04:21:27;14.00;;;6.90;;
70829;SDS011;58451;51.550;7.208;2022-07-30T04:23:58;16.40;;;8.50;;
70829;SDS011;58451;51.550;7.208;2022-07-30T04:26:33;15.60;;;7.10;;
70829;SDS011;58451;51.550;7.208;2022-07-30T04:29:06;14.80;;;8.40;;
70829;SDS011;58451;51.550;7.208;2022-07-30T04:31:43;15.40;;;8.00;;
70829;SDS011;58451;51.550;7.208;2022-07-30T04:34:32;13.90;;;8.00;;
70829;SDS011;58451;51.550;7.208;2022-07-30T04:36:59;18.70;;;7.90;;
70829;SDS011;58451;51.550;7.208;2022-07-30T04:39:27;15.20;;;8.70;;
70829;SDS011;58451;51.550;7.208;2022-07-30T04:41:54;18.50;;;9.60;;
70829;SDS011;58451;51.550;7.208;2022-07-30T04:44:33;14.60;;;9.20;;
70829;SDS011;58451;51.550;7.208;2022-07-30T04:47:19;18.10;;;9.60;;
70829;SDS011;58451;51.550;7.208;2022-07-30T04:50:20;16.90;;;9.70;;
70829;SDS011;58451;51.550;7.208;2022-07-30T04:52:51;16.20;;;9.40;;
70829;SDS011;58451;51.550;7.208;2022-07-30T04:55:25;12.50;;;7.30;;
70829;SDS011;58451;51.550;7.208;2022-07-30T04:57:53;15.60;;;8.70;;
70829;SDS011;58451;51.550;7.208;2022-07-30T05:00:22;16.60;;;9.50;;
70829;SDS011;58451;51.550;7.208;2022-07-30T05:02:50;16.10;;;8.10;;
70829;SDS011;58451;51.550;7.208;2022-07-30T05:05:21;14.20;;;8.50;;
70829;SDS011;58451;51.550;7.208;2022-07-30T05:07:50;20.40;;;11.40;;
70829;SDS011;58451;51.550;7.208;2022-07-30T05:10:18;18.30;;;11.30;;
70829;SDS011;58451;51.550;7.208;2022-07-30T05:12:46;16.10;;;8.80;;
70829;SDS011;58451;51.550;7.208;2022-07-30T05:15:14;17.10;;;8.60;;
70829;SDS011;58451;51.550;7.208;2022-07-30T05:17:41;18.50;;;10.80;;
70829;SDS011;58451;51.550;7.208;2022-07-30T05:20:08;17.40;;;9.60;;
70829;SDS011;58451;51.550;7.208;2022-07-30T05:22:51;20.80;;;12.40;;
70829;SDS011;58451;51.550;7.208;2022-07-30T05:25:19;23.40;;;11.00;;
70829;SDS011;58451;51.550;7.208;2022-07-30T05:27:47;19.50;;;11.80;;
70829;SDS011;58451;51.550;7.208;2022-07-30T05:30:14;23.40;;;11.60;;
70829;SDS011;58451;51.550;7.208;2022-07-30T05:32:42;22.20;;;12.70;;
70829;SDS011;58451;51.550;7.208;2022-07-30T05:35:12;25.60;;;13.10;;
70829;SDS011;58451;51.550;7.208;2022-07-30T05:37:39;24.40;;;12.90;;
70829;SDS011;58451;51.550;7.208;2022-07-30T05:40:07;25.80;;;12.30;;
70829;SDS011;58451;51.550;7.208;2022-07-30T05:42:58;34.70;;;16.20;;
70829;SDS011;58451;51.550;7.208;2022-07-30T05:45:26;38.40;;;17.70;;
70829;SDS011;58451;51.550;7.208;2022-07-30T05:47:53;38.20;;;17.70;;
70829;SDS011;58451;51.550;7.208;2022-07-30T05:50:20;33.70;;;17.10;;
70829;SDS011;58451;51.550;7.208;2022-07-30T05:52:46;31.30;;;14.60;;
70829;SDS011;58451;51.550;7.208;2022-07-30T05:55:32;33.10;;;16.20;;
70829;SDS011;58451;51.550;7.208;2022-07-30T05:58:15;32.80;;;15.70;;
70829;SDS011;58451;51.550;7.208;2022-07-30T06:00:42;27.80;;;12.10;;
70829;SDS011;58451;51.550;7.208;2022-07-30T06:03:09;31.30;;;15.50;;
70829;SDS011;58451;51.550;7.208;2022-07-30T06:05:54;26.90;;;11.90;;
70829;SDS011;58451;51.550;7.208;2022-07-30T06:08:21;23.40;;;12.00;;
70829;SDS011;58451;51.550;7.208;2022-07-30T06:10:48;31.40;;;15.40;;
70829;SDS011;58451;51.550;7.208;2022-07-30T06:13:15;29.80;;;14.80;;
70829;SDS011;58451;51.550;7.208;2022-07-30T06:15:42;33.20;;;13.90;;
70829;SDS011;58451;51.550;7.208;2022-07-30T06:18:09;31.20;;;14.70;;
70829;SDS011;58451;51.550;7.208;2022-07-30T06:20:46;33.00;;;15.70;;
70829;SDS011;58451;51.550;7.208;2022-07-30T06:23:21;31.30;;;15.90;;
70829;SDS011;58451;51.550;7.208;2022-07-30T06:26:04;32.40;;;15.00;;
70829;SDS011;58451;51.550;7.208;2022-07-30T06:28:31;33.30;;;15.10;;
70829;SDS011;58451;51.550;7.208;2022-07-30T06:31:10;37.80;;;17.10;;
70829;SDS011;58451;51.550;7.208;2022-07-30T06:33:37;34.60;;;17.10;;
70829;SDS011;58451;51.550;7.208;2022-07-30T06:36:05;28.00;;;13.50;;
70829;SDS011;58451;51.550;7.208;2022-07-30T06:38:41;24.80;;;12.30;;
70829;SDS011;58451;51.550;7.208;2022-07-30T06:41:11;21.20;;;11.00;;
70829;SDS011;58451;51.550;7.208;2022-07-30T06:43:51;24.20;;;12.60;;
70829;SDS011;58451;51.550;7.208;2022-07-30T06:46:37;32.70;;;16.30;;
70829;SDS011;58451;51.550;7.208;2022-07-30T06:49:04;33.30;;;17.30;;
70829;SDS011;58451;51.550;7.208;2022-07-30T06:51:32;30.60;;;15.30;;
70829;SDS011;58451;51.550;7.208;2022-07-30T06:54:00;35.80;;;17.60;;
70829;SDS011;58451;51.550;7.208;2022-07-30T06:56:29;26.20;;;13.60;;
70829;SDS011;58451;51.550;7.208;2022-07-30T06:59:01;30.70;;;15.30;;
70829;SDS011;58451;51.550;7.208;2022-07-30T07:01:43;29.50;;;14.50;;
70829;SDS011;58451;51.550;7.208;2022-07-30T07:04:10;31.00;;;14.90;;
70829;SDS011;58451;51.550;7.208;2022-07-30T07:06:37;23.60;;;13.20;;
70829;SDS011;58451;51.550;7.208;2022-07-30T07:09:04;22.60;;;12.70;;
70829;SDS011;58451;51.550;7.208;2022-07-30T07:11:38;27.10;;;14.50;;
70829;SDS011;58451;51.550;7.208;2022-07-30T07:14:08;20.00;;;11.00;;
70829;SDS011;58451;51.550;7.208;2022-07-30T07:16:35;23.50;;;12.70;;
70829;SDS011;58451;51.550;7.208;2022-07-30T07:19:22;34.00;;;17.90;;
70829;SDS011;58451;51.550;7.208;2022-07-30T07:22:09;32.40;;;17.00;;
70829;SDS011;58451;51.550;7.208;2022-07-30T07:24:36;28.20;;;15.50;;
70829;SDS011;58451;51.550;7.208;2022-07-30T07:27:10;30.00;;;16.10;;
70829;SDS011;58451;51.550;7.208;2022-07-30T07:29:42;30.50;;;16.90;;
70829;SDS011;58451;51.550;7.208;2022-07-30T07:32:30;23.60;;;12.10;;
70829;SDS011;58451;51.550;7.208;2022-07-30T07:34:57;27.60;;;15.00;;
70829;SDS011;58451;51.550;7.208;2022-07-30T07:37:25;21.90;;;12.90;;
70829;SDS011;58451;51.550;7.208;2022-07-30T07:39:52;19.30;;;10.20;;
70829;SDS011;58451;51.550;7.208;2022-07-30T07:42:19;22.40;;;13.10;;
70829;SDS011;58451;51.550;7.208;2022-07-30T07:44:46;25.90;;;14.00;;
70829;SDS011;58451;51.550;7.208;2022-07-30T07:47:13;22.70;;;12.40;;
70829;SDS011;58451;51.550;7.208;2022-07-30T07:49:44;23.20;;;11.80;;
70829;SDS011;58451;51.550;7.208;2022-07-30T07:52:11;22.50;;;11.70;;
70829;SDS011;58451;51.550;7.208;2022-07-30T07:54:38;25.40;;;13.20;;
70829;SDS011;58451;51.550;7.208;2022-07-30T07:57:05;25.30;;;13.70;;
70829;SDS011;58451;51.550;7.208;2022-07-30T07:59:39;26.90;;;13.50;;
70829;SDS011;58451;51.550;7.208;2022-07-30T08:02:17;29.30;;;16.90;;
70829;SDS011;58451;51.550;7.208;2022-07-30T08:04:51;33.40;;;19.00;;
70829;SDS011;58451;51.550;7.208;2022-07-30T08:07:30;33.70;;;17.50;;
70829;SDS011;58451;51.550;7.208;2022-07-30T08:10:07;29.20;;;16.40;;
70829;SDS011;58451;51.550;7.208;2022-07-30T08:13:07;30.30;;;17.50;;
70829;SDS011;58451;51.550;7.208;2022-07-30T08:16:20;25.80;;;14.70;;
70829;SDS011;58451;51.550;7.208;2022-07-30T08:19:13;24.20;;;13.50;;
70829;SDS011;58451;51.550;7.208;2022-07-30T08:21:52;23.40;;;13.30;;
70829;SDS011;58451;51.550;7.208;2022-07-30T08:24:19;22.00;;;13.40;;
70829;SDS011;58451;51.550;7.208;2022-07-30T08:26:45;23.90;;;14.10;;
70829;SDS011;58451;51.550;7.208;2022-07-30T08:29:12;24.30;;;15.40;;
70829;SDS011;58451;51.550;7.208;2022-07-30T08:31:42;21.10;;;13.30;;
70829;SDS011;58451;51.550;7.208;2022-07-30T08:34:09;23.50;;;14.80;;
70829;SDS011;58451;51.550;7.208;2022-07-30T08:36:38;21.50;;;13.10;;
70829;SDS011;58451;51.550;7.208;2022-07-30T08:39:05;23.40;;;12.50;;
70829;SDS011;58451;51.550;7.208;2022-07-30T08:41:32;19.90;;;12.00;;
70829;SDS011;58451;51.550;7.208;2022-07-30T08:43:59;27.90;;;16.70;;
70829;SDS011;58451;51.550;7.208;2022-07-30T08:46:30;27.60;;;15.80;;
70829;SDS011;58451;51.550;7.208;2022-07-30T08:49:06;21.00;;;12.80;;
70829;SDS011;58451;51.550;7.208;2022-07-30T08:51:37;23.70;;;13.50;;
70829;SDS011;58451;51.550;7.208;2022-07-30T08:54:38;21.00;;;11.20;;
70829;SDS011;58451;51.550;7.208;2022-07-30T08:57:06;25.70;;;14.80;;
70829;SDS011;58451;51.550;7.208;2022-07-30T08:59:35;22.60;;;14.10;;
70829;SDS011;58451;51.550;7.208;2022-07-30T09:02:25;25.10;;;15.10;;
70829;SDS011;58451;51.550;7.208;2022-07-30T09:05:06;22.60;;;10.80;;
70829;SDS011;58451;51.550;7.208;2022-07-30T09:07:34;18.90;;;10.40;;
70829;SDS011;58451;51.550;7.208;2022-07-30T09:10:03;21.60;;;12.80;;
70829;SDS011;58451;51.550;7.208;2022-07-30T09:15:11;18.00;;;8.90;;
70829;SDS011;58451;51.550;7.208;2022-07-30T09:17:48;17.70;;;9.30;;
70829;SDS011;58451;51.550;7.208;2022-07-30T09:20:26;17.60;;;10.30;;
70829;SDS011;58451;51.550;7.208;2022-07-30T09:22:58;17.50;;;8.50;;
70829;SDS011;58451;51.550;7.208;2022-07-30T09:25:46;15.80;;;9.10;;
70829;SDS011;58451;51.550;7.208;2022-07-30T09:28:33;14.20;;;8.10;;
70829;SDS011;58451;51.550;7.208;2022-07-30T09:31:26;12.90;;;7.50;;
70829;SDS011;58451;51.550;7.208;2022-07-30T09:34:38;13.10;;;6.80;;
70829;SDS011;58451;51.550;7.208;2022-07-30T09:40:15;13.80;;;5.90;;
70829;SDS011;58451;51.550;7.208;2022-07-30T09:43:16;10.30;;;5.60;;
70829;SDS011;58451;51.550;7.208;2022-07-30T09:45:55;13.00;;;7.40;;
70829;SDS011;58451;51.550;7.208;2022-07-30T09:48:26;10.80;;;6.50;;
70829;SDS011;58451;51.550;7.208;2022-07-30T09:50:54;10.90;;;5.60;;
70829;SDS011;58451;51.550;7.208;2022-07-30T09:53:23;13.10;;;6.60;;
70829;SDS011;58451;51.550;7.208;2022-07-30T09:55:51;11.70;;;6.00;;
70829;SDS011;58451;51.550;7.208;2022-07-30T09:58:20;10.30;;;5.20;;
70829;SDS011;58451;51.550;7.208;2022-07-30T10:00:57;11.70;;;7.50;;
70829;SDS011;58451;51.550;7.208;2022-07-30T10:03:47;10.60;;;6.30;;
70829;SDS011;58451;51.550;7.208;2022-07-30T10:06:54;12.30;;;6.20;;
70829;SDS011;58451;51.550;7.208;2022-07-30T10:09:32;13.50;;;7.20;;
70829;SDS011;58451;51.550;7.208;2022-07-30T10:12:04;9.70;;;5.60;;
70829;SDS011;58451;51.550;7.208;2022-07-30T10:14:37;10.40;;;5.10;;
70829;SDS011;58451;51.550;7.208;2022-07-30T10:17:11;10.50;;;5.80;;
70829;SDS011;58451;51.550;7.208;2022-07-30T10:19:39;11.00;;;4.80;;
70829;SDS011;58451;51.550;7.208;2022-07-30T10:22:43;10.30;;;5.00;;
70829;SDS011;58451;51.550;7.208;2022-07-30T10:25:32;9.20;;;4.30;;
70829;SDS011;58451;51.550;7.208;2022-07-30T10:28:21;10.40;;;5.60;;
70829;SDS011;58451;51.550;7.208;2022-07-30T10:30:52;11.90;;;6.00;;
70829;SDS011;58451;51.550;7.208;2022-07-30T10:33:22;10.80;;;5.80;;
70829;SDS011;58451;51.550;7.208;2022-07-30T10:36:05;8.90;;;4.80;;
70829;SDS011;58451;51.550;7.208;2022-07-30T10:38:38;10.60;;;7.10;;
70829;SDS011;58451;51.550;7.208;2022-07-30T10:47:09;8.80;;;5.30;;
70829;SDS011;58451;51.550;7.208;2022-07-30T10:49:39;12.10;;;5.90;;
70829;SDS011;58451;51.550;7.208;2022-07-30T10:52:09;10.80;;;5.50;;
70829;SDS011;58451;51.550;7.208;2022-07-30T10:54:43;10.50;;;6.60;;
70829;SDS011;58451;51.550;7.208;2022-07-30T10:57:13;11.60;;;6.60;;
70829;SDS011;58451;51.550;7.208;2022-07-30T11:02:30;11.50;;;8.40;;
70829;SDS011;58451;51.550;7.208;2022-07-30T11:07:53;14.00;;;8.80;;
70829;SDS011;58451;51.550;7.208;2022-07-30T11:10:37;10.80;;;8.90;;
70829;SDS011;58451;51.550;7.208;2022-07-30T11:13:09;13.60;;;8.40;;
70829;SDS011;58451;51.550;7.208;2022-07-30T11:18:25;10.00;;;5.90;;
70829;SDS011;58451;51.550;7.208;2022-07-30T11:21:19;8.10;;;6.10;;
70829;SDS011;58451;51.550;7.208;2022-07-30T11:23:48;10.60;;;7.40;;
70829;SDS011;58451;51.550;7.208;2022-07-30T11:29:19;10.40;;;6.70;;
70829;SDS011;58451;51.550;7.208;2022-07-30T11:32:32;9.20;;;6.20;;
70829;SDS011;58451;51.550;7.208;2022-07-30T11:43:21;9.00;;;5.50;;
70829;SDS011;58451;51.550;7.208;2022-07-30T11:46:07;8.40;;;5.70;;
70829;SDS011;58451;51.550;7.208;2022-07-30T11:51:23;8.90;;;5.40;;
70829;SDS011;58451;51.550;7.208;2022-07-30T11:54:03;10.60;;;4.90;;
70829;SDS011;58451;51.550;7.208;2022-07-30T11:56:32;8.50;;;4.90;;
70829;SDS011;58451;51.550;7.208;2022-07-30T11:59:04;7.20;;;4.30;;
70829;SDS011;58451;51.550;7.208;2022-07-30T12:01:34;6.80;;;4.10;;
70829;SDS011;58451;51.550;7.208;2022-07-30T12:04:05;6.30;;;3.60;;
70829;SDS011;58451;51.550;7.208;2022-07-30T12:06:45;9.00;;;4.00;;
70829;SDS011;58451;51.550;7.208;2022-07-30T12:09:23;8.60;;;3.40;;
70829;SDS011;58451;51.550;7.208;2022-07-30T12:11:55;7.50;;;3.20;;
70829;SDS011;58451;51.550;7.208;2022-07-30T12:14:23;9.90;;;3.90;;
70829;SDS011;58451;51.550;7.208;2022-07-30T12:16:52;7.10;;;4.20;;
70829;SDS011;58451;51.550;7.208;2022-07-30T12:19:19;8.40;;;3.20;;
70829;SDS011;58451;51.550;7.208;2022-07-30T12:21:46;5.20;;;2.20;;
70829;SDS011;58451;51.550;7.208;2022-07-30T12:24:24;5.60;;;2.50;;
70829;SDS011;58451;51.550;7.208;2022-07-30T12:27:05;5.60;;;2.40;;
70829;SDS011;58451;51.550;7.208;2022-07-30T12:29:33;5.10;;;2.70;;
70829;SDS011;58451;51.550;7.208;2022-07-30T12:32:01;6.50;;;2.50;;
70829;SDS011;58451;51.550;7.208;2022-07-30T12:34:28;5.40;;;2.90;;
70829;SDS011;58451;51.550;7.208;2022-07-30T12:37:06;5.60;;;2.50;;
70829;SDS011;58451;51.550;7.208;2022-07-30T12:39:36;6.20;;;2.80;;
70829;SDS011;58451;51.550;7.208;2022-07-30T12:42:03;6.20;;;2.60;;
70829;SDS011;58451;51.550;7.208;2022-07-30T12:44:41;5.90;;;2.70;;
70829;SDS011;58451;51.550;7.208;2022-07-30T12:47:26;3.80;;;1.90;;
70829;SDS011;58451;51.550;7.208;2022-07-30T12:49:56;6.70;;;2.80;;
70829;SDS011;58451;51.550;7.208;2022-07-30T12:52:31;4.70;;;2.00;;
70829;SDS011;58451;51.550;7.208;2022-07-30T12:55:08;3.20;;;1.70;;
70829;SDS011;58451;51.550;7.208;2022-07-30T12:57:57;4.10;;;1.80;;
70829;SDS011;58451;51.550;7.208;2022-07-30T13:03:29;3.90;;;2.00;;
70829;SDS011;58451;51.550;7.208;2022-07-30T13:06:19;4.80;;;2.00;;
70829;SDS011;58451;51.550;7.208;2022-07-30T13:08:52;4.90;;;2.00;;
70829;SDS011;58451;51.550;7.208;2022-07-30T13:11:26;4.80;;;1.80;;
70829;SDS011;58451;51.550;7.208;2022-07-30T13:14:04;3.90;;;1.90;;
70829;SDS011;58451;51.550;7.208;2022-07-30T13:16:32;3.60;;;1.90;;
70829;SDS011;58451;51.550;7.208;2022-07-30T13:19:05;5.40;;;2.00;;
70829;SDS011;58451;51.550;7.208;2022-07-30T13:21:33;5.60;;;2.40;;
70829;SDS011;58451;51.550;7.208;2022-07-30T13:24:00;7.80;;;2.60;;
70829;SDS011;58451;51.550;7.208;2022-07-30T13:26:28;6.50;;;1.80;;
70829;SDS011;58451;51.550;7.208;2022-07-30T13:28:56;6.50;;;2.10;;
70829;SDS011;58451;51.550;7.208;2022-07-30T13:31:27;4.40;;;2.10;;
70829;SDS011;58451;51.550;7.208;2022-07-30T13:34:08;3.70;;;2.30;;
70829;SDS011;58451;51.550;7.208;2022-07-30T13:36:35;3.80;;;2.30;;
70829;SDS011;58451;51.550;7.208;2022-07-30T13:39:02;3.80;;;1.80;;
70829;SDS011;58451;51.550;7.208;2022-07-30T13:41:29;5.60;;;2.90;;
70829;SDS011;58451;51.550;7.208;2022-07-30T13:43:55;4.70;;;2.20;;
70829;SDS011;58451;51.550;7.208;2022-07-30T13:46:22;4.10;;;2.40;;
70829;SDS011;58451;51.550;7.208;2022-07-30T13:48:49;3.90;;;2.40;;
70829;SDS011;58451;51.550;7.208;2022-07-30T13:51:16;4.50;;;2.60;;
70829;SDS011;58451;51.550;7.208;2022-07-30T13:53:44;3.80;;;2.40;;
70829;SDS011;58451;51.550;7.208;2022-07-30T13:56:11;3.90;;;2.80;;
70829;SDS011;58451;51.550;7.208;2022-07-30T13:58:41;4.50;;;2.70;;
70829;SDS011;58451;51.550;7.208;2022-07-30T14:01:09;5.70;;;2.80;;
70829;SDS011;58451;51.550;7.208;2022-07-30T14:03:44;4.00;;;2.50;;
70829;SDS011;58451;51.550;7.208;2022-07-30T14:06:17;5.00;;;3.10;;
70829;SDS011;58451;51.550;7.208;2022-07-30T14:08:45;4.40;;;3.20;;
70829;SDS011;58451;51.550;7.208;2022-07-30T14:11:12;6.10;;;3.20;;
70829;SDS011;58451;51.550;7.208;2022-07-30T14:13:40;5.00;;;3.20;;
70829;SDS011;58451;51.550;7.208;2022-07-30T14:16:07;4.80;;;3.70;;
70829;SDS011;58451;51.550;7.208;2022-07-30T14:18:53;5.00;;;4.40;;
70829;SDS011;58451;51.550;7.208;2022-07-30T14:21:23;5.80;;;4.10;;
70829;SDS011;58451;51.550;7.208;2022-07-30T14:23:50;5.30;;;4.00;;
70829;SDS011;58451;51.550;7.208;2022-07-30T14:26:17;6.50;;;4.90;;
70829;SDS011;58451;51.550;7.208;2022-07-30T14:28:44;5.70;;;4.60;;
70829;SDS011;58451;51.550;7.208;2022-07-30T14:31:11;5.70;;;5.00;;
70829;SDS011;58451;51.550;7.208;2022-07-30T14:33:38;5.50;;;5.00;;
70829;SDS011;58451;51.550;7.208;2022-07-30T14:36:05;5.80;;;4.90;;
70829;SDS011;58451;51.550;7.208;2022-07-30T14:38:32;6.10;;;5.50;;
70829;SDS011;58451;51.550;7.208;2022-07-30T14:40:59;5.50;;;4.30;;
70829;SDS011;58451;51.550;7.208;2022-07-30T14:43:26;6.70;;;5.10;;
70829;SDS011;58451;51.550;7.208;2022-07-30T14:45:53;6.10;;;5.20;;
70829;SDS011;58451;51.550;7.208;2022-07-30T14:48:20;6.10;;;5.00;;
70829;SDS011;58451;51.550;7.208;2022-07-30T14:50:47;6.40;;;4.90;;
70829;SDS011;58451;51.550;7.208;2022-07-30T14:53:33;6.40;;;5.00;;
70829;SDS011;58451;51.550;7.208;2022-07-30T14:56:00;5.80;;;5.20;;
70829;SDS011;58451;51.550;7.208;2022-07-30T14:58:27;7.00;;;6.10;;
70829;SDS011;58451;51.550;7.208;2022-07-30T15:00:54;7.50;;;6.70;;
70829;SDS011;58451;51.550;7.208;2022-07-30T15:03:21;8.10;;;7.20;;
70829;SDS011;58451;51.550;7.208;2022-07-30T15:05:51;8.70;;;7.90;;
70829;SDS011;58451;51.550;7.208;2022-07-30T15:08:18;10.80;;;9.80;;
70829;SDS011;58451;51.550;7.208;2022-07-30T15:10:45;11.70;;;10.70;;
70829;SDS011;58451;51.550;7.208;2022-07-30T15:13:13;12.90;;;12.00;;
70829;SDS011;58451;51.550;7.208;2022-07-30T15:15:41;12.80;;;11.90;;
70829;SDS011;58451;51.550;7.208;2022-07-30T15:18:12;14.00;;;13.00;;
70829;SDS011;58451;51.550;7.208;2022-07-30T15:20:39;13.90;;;12.90;;
70829;SDS011;58451;51.550;7.208;2022-07-30T15:23:06;15.60;;;14.60;;
70829;SDS011;58451;51.550;7.208;2022-07-30T15:25:39;14.50;;;13.40;;
70829;SDS011;58451;51.550;7.208;2022-07-30T15:28:07;15.10;;;14.00;;
70829;SDS011;58451;51.550;7.208;2022-07-30T15:30:34;19.30;;;18.00;;
70829;SDS011;58451;51.550;7.208;2022-07-30T15:33:01;18.30;;;17.10;;
70829;SDS011;58451;51.550;7.208;2022-07-30T15:35:28;20.70;;;19.40;;
70829;SDS011;58451;51.550;7.208;2022-07-30T15:37:57;21.30;;;19.80;;
70829;SDS011;58451;51.550;7.208;2022-07-30T15:40:24;23.90;;;22.40;;
70829;SDS011;58451;51.550;7.208;2022-07-30T15:42:51;21.10;;;19.70;;
70829;SDS011;58451;51.550;7.208;2022-07-30T15:45:20;21.00;;;19.70;;
70829;SDS011;58451;51.550;7.208;2022-07-30T15:47:50;20.50;;;19.00;;